createdAt,value
2023-02-27T00:00:01.456Z,10.10
2023-02-27T00:02:28.216Z,11.75
2023-02-27T00:04:57.486Z,10.55
2023-02-27T00:07:26.197Z,11.02
2023-02-27T00:09:53.411Z,11.48
2023-02-27T00:12:20.339Z,10.25
2023-02-27T00:14:47.121Z,9.00
2023-02-27T00:17:13.881Z,11.00
2023-02-27T00:19:40.664Z,9.70
2023-02-27T00:22:07.371Z,8.60
2023-02-27T00:24:34.218Z,9.55
2023-02-27T00:27:01.140Z,8.70
2023-02-27T00:29:27.934Z,9.05
2023-02-27T00:31:54.763Z,8.93
2023-02-27T00:34:21.504Z,7.88
2023-02-27T00:36:48.293Z,10.57
2023-02-27T00:39:15.872Z,8.98
2023-02-27T00:41:42.600Z,7.70
2023-02-27T00:44:09.377Z,9.52
2023-02-27T00:46:36.240Z,10.90
2023-02-27T00:49:03.112Z,10.52
2023-02-27T00:51:29.824Z,9.63
2023-02-27T00:53:56.827Z,8.05
2023-02-27T00:56:23.551Z,10.73
2023-02-27T00:58:50.289Z,7.40
2023-02-27T01:01:17.119Z,14.32
2023-02-27T01:03:43.860Z,14.00
2023-02-27T01:06:10.680Z,12.45
2023-02-27T01:08:37.489Z,10.02
2023-02-27T01:11:04.331Z,7.72
2023-02-27T01:13:31.126Z,9.55
2023-02-27T01:15:57.876Z,14.00
2023-02-27T01:18:24.699Z,20.00
2023-02-27T01:20:55.670Z,22.58
2023-02-27T01:23:23.000Z,16.35
2023-02-27T01:25:50.349Z,12.52
2023-02-27T01:28:17.313Z,10.75
2023-02-27T01:30:44.507Z,12.57
2023-02-27T01:33:11.311Z,16.40
2023-02-27T01:35:38.321Z,17.20
2023-02-27T01:38:05.120Z,17.48
2023-02-27T01:40:40.218Z,13.63
2023-02-27T01:43:07.551Z,11.73
2023-02-27T01:45:42.025Z,14.30
2023-02-27T01:48:20.161Z,12.48
2023-02-27T01:50:54.852Z,10.68
2023-02-27T01:53:26.006Z,11.95
2023-02-27T01:56:00.757Z,12.38
2023-02-27T01:58:27.888Z,16.23
2023-02-27T02:00:55.474Z,12.50
2023-02-27T02:03:44.290Z,11.48
2023-02-27T02:06:12.461Z,11.77
2023-02-27T02:08:45.670Z,11.40
2023-02-27T02:11:14.989Z,12.55
2023-02-27T02:13:42.368Z,13.65
2023-02-27T02:16:37.061Z,11.15
2023-02-27T02:19:22.427Z,10.38
2023-02-27T02:22:06.677Z,12.68
2023-02-27T02:24:48.244Z,14.10
2023-02-27T02:27:47.180Z,11.45
2023-02-27T02:30:55.138Z,12.85
2023-02-27T02:33:31.003Z,10.40
2023-02-27T02:36:28.384Z,11.75
2023-02-27T02:39:20.251Z,13.45
2023-02-27T02:42:07.753Z,13.25
2023-02-27T02:44:43.075Z,15.75
2023-02-27T02:47:21.843Z,17.55
2023-02-27T02:50:21.560Z,16.15
2023-02-27T02:53:14.040Z,14.20
2023-02-27T02:56:05.061Z,13.60
2023-02-27T02:58:38.482Z,15.55
2023-02-27T03:01:12.896Z,20.50
2023-02-27T03:03:49.058Z,16.48
2023-02-27T03:06:26.978Z,18.83
2023-02-27T03:08:58.229Z,19.45
2023-02-27T03:11:29.225Z,21.15
2023-02-27T03:14:18.197Z,22.30
2023-02-27T03:16:48.901Z,19.48
2023-02-27T03:19:22.254Z,19.38
2023-02-27T03:21:57.183Z,19.23
2023-02-27T03:24:30.243Z,21.23
2023-02-27T03:27:02.987Z,17.13
2023-02-27T03:29:56.687Z,17.40
2023-02-27T03:32:56.840Z,17.70
2023-02-27T03:35:29.749Z,16.10
2023-02-27T03:38:08.729Z,14.77
2023-02-27T03:40:49.186Z,14.65
2023-02-27T03:43:38.719Z,15.52
2023-02-27T03:46:18.332Z,12.93
2023-02-27T03:48:46.472Z,15.65
2023-02-27T03:51:19.346Z,16.85
2023-02-27T03:53:52.129Z,13.85
2023-02-27T03:56:24.947Z,12.00
2023-02-27T03:58:52.582Z,11.18
2023-02-27T04:01:19.486Z,12.88
2023-02-27T04:03:58.227Z,14.18
2023-02-27T04:06:43.947Z,10.85
2023-02-27T04:09:48.894Z,11.27
2023-02-27T04:12:36.893Z,14.32
2023-02-27T04:15:29.463Z,15.05
2023-02-27T04:18:17.278Z,11.52
2023-02-27T04:21:29.553Z,13.82
2023-02-27T04:24:10.322Z,13.05
2023-02-27T04:26:53.025Z,16.50
2023-02-27T04:29:25.673Z,12.30
2023-02-27T04:31:59.624Z,11.38
2023-02-27T04:34:29.167Z,12.25
2023-02-27T04:37:02.127Z,11.93
2023-02-27T04:39:46.082Z,14.95
2023-02-27T04:42:17.871Z,17.38
2023-02-27T04:44:46.557Z,17.83
2023-02-27T04:47:15.926Z,19.27
2023-02-27T04:49:53.418Z,18.67
2023-02-27T04:52:34.350Z,17.08
2023-02-27T04:55:01.046Z,14.77
2023-02-27T04:57:35.617Z,17.67
2023-02-27T05:00:07.663Z,14.02
2023-02-27T05:02:38.888Z,16.15
2023-02-27T05:05:13.344Z,15.52
2023-02-27T05:07:48.133Z,14.30
2023-02-27T05:10:38.963Z,18.20
2023-02-27T05:13:14.175Z,15.98
2023-02-27T05:15:52.804Z,17.80
2023-02-27T05:18:21.801Z,17.58
2023-02-27T05:21:00.858Z,18.25
2023-02-27T05:23:49.477Z,16.60
2023-02-27T05:26:43.339Z,21.85
2023-02-27T05:29:28.139Z,16.20
2023-02-27T05:32:15.308Z,13.45
2023-02-27T05:34:54.753Z,12.35
2023-02-27T05:37:55.438Z,15.80
2023-02-27T05:40:27.891Z,16.02
2023-02-27T05:43:27.669Z,20.63
2023-02-27T05:46:01.265Z,16.50
2023-02-27T05:48:32.718Z,15.13
2023-02-27T05:50:59.874Z,19.65
2023-02-27T05:53:32.224Z,21.58
2023-02-27T05:56:01.800Z,18.73
2023-02-27T05:59:09.905Z,18.95
2023-02-27T06:01:36.900Z,18.83
2023-02-27T06:04:03.661Z,15.90
2023-02-27T06:06:31.040Z,15.98
2023-02-27T06:08:57.887Z,18.08
2023-02-27T06:11:24.607Z,13.48
2023-02-27T06:13:51.337Z,12.85
2023-02-27T06:16:18.279Z,16.92
2023-02-27T06:18:45.142Z,16.27
2023-02-27T06:21:15.678Z,16.92
2023-02-27T06:23:42.866Z,19.23
2023-02-27T06:26:13.813Z,17.65
2023-02-27T06:28:42.458Z,17.92
2023-02-27T06:31:09.467Z,17.08
2023-02-27T06:33:36.249Z,14.85
2023-02-27T06:36:03.210Z,19.30
2023-02-27T06:38:30.099Z,15.02
2023-02-27T06:40:57.023Z,15.63
2023-02-27T06:43:23.766Z,15.32
2023-02-27T06:45:54.109Z,14.60
2023-02-27T06:48:21.011Z,12.93
2023-02-27T06:50:56.255Z,13.63
2023-02-27T06:53:24.333Z,12.25
2023-02-27T06:55:51.300Z,14.95
2023-02-27T06:58:18.675Z,19.25
2023-02-27T07:00:45.440Z,14.63
2023-02-27T07:03:13.301Z,14.35
2023-02-27T07:05:41.921Z,12.93
2023-02-27T07:08:09.579Z,17.08
2023-02-27T07:10:36.688Z,14.77
2023-02-27T07:13:03.550Z,13.40
2023-02-27T07:15:30.444Z,15.57
2023-02-27T07:17:57.212Z,18.17
2023-02-27T07:20:23.984Z,14.15
2023-02-27T07:22:51.493Z,17.98
2023-02-27T07:25:18.478Z,16.02
2023-02-27T07:27:46.682Z,18.40
2023-02-27T07:30:13.764Z,15.10
2023-02-27T07:32:40.478Z,11.82
2023-02-27T07:35:08.647Z,16.55
2023-02-27T07:37:36.025Z,18.15
2023-02-27T07:40:03.219Z,13.55
2023-02-27T07:42:30.087Z,11.73
2023-02-27T07:44:57.004Z,12.15
2023-02-27T07:47:23.804Z,13.07
2023-02-27T07:49:50.545Z,13.60
2023-02-27T07:52:17.466Z,11.35
2023-02-27T07:54:44.210Z,13.80
2023-02-27T07:57:11.111Z,12.73
2023-02-27T07:59:37.896Z,13.77
2023-02-27T08:02:04.678Z,13.95
2023-02-27T08:04:32.209Z,16.65
2023-02-27T08:06:59.145Z,15.38
2023-02-27T08:09:25.907Z,16.27
2023-02-27T08:11:52.856Z,16.25
2023-02-27T08:14:19.654Z,18.25
2023-02-27T08:16:46.424Z,13.30
2023-02-27T08:19:14.600Z,12.75
2023-02-27T08:21:41.717Z,18.17
2023-02-27T08:24:08.523Z,22.45
2023-02-27T10:39:06.333Z,7.65
2023-02-27T15:36:30.552Z,7.40
2023-02-27T15:44:35.320Z,6.93
2023-02-27T19:50:07.608Z,10.45
